Time;durP1;ratioP1;P1;durP2;ratioP2;P2;SDS_P1;SDS_P2;PMS_P1;PMS_P2;Temp;Humidity;BMP_temperature;BMP_pressure;BME280_temperature;BME280_humidity;BME280_pressure;Samples;Min_cycle;Max_cycle;Signal;HPM_P1;HPM_P2
2022/11/27 00:00:34;;;;;;;39.80;28.47;;;;;;;;;;4417296;32;20225;-81
2022/11/27 00:03:02;;;;;;;39.73;28.03;;;;;;;;;;4420457;32;20277;-85
2022/11/27 00:05:29;;;;;;;48.77;26.17;;;;;;;;;;4418002;32;20249;-85
2022/11/27 00:07:55;;;;;;;43.13;28.53;;;;;;;;;;4419198;32;20323;-81
2022/11/27 00:10:22;;;;;;;42.70;26.50;;;;;;;;;;4418515;32;20259;-81
2022/11/27 00:12:49;;;;;;;38.37;27.17;;;;;;;;;;4417919;32;20275;-81
2022/11/27 00:15:16;;;;;;;40.23;28.50;;;;;;;;;;4416903;32;20319;-81
2022/11/27 00:17:43;;;;;;;34.43;26.10;;;;;;;;;;4417866;32;20229;-80
2022/11/27 00:20:12;;;;;;;30.20;22.90;;;;;;;;;;4417609;32;20276;-82
2022/11/27 00:22:39;;;;;;;32.17;20.20;;;;;;;;;;4417776;32;20289;-84
2022/11/27 00:25:08;;;;;;;25.17;18.70;;;;;;;;;;4417593;32;20228;-83
2022/11/27 00:27:34;;;;;;;31.07;18.03;;;;;;;;;;4402427;32;20283;-90
2022/11/27 00:30:02;;;;;;;33.27;19.90;;;;;;;;;;4402698;32;20229;-85
2022/11/27 00:32:29;;;;;;;37.30;19.80;;;;;;;;;;4402891;32;20275;-80
2022/11/27 00:34:56;;;;;;;54.97;30.00;;;;;;;;;;4410281;32;20435;-81
2022/11/27 00:37:24;;;;;;;57.30;31.70;;;;;;;;;;4418194;32;20266;-84
2022/11/27 00:39:51;;;;;;;56.63;31.30;;;;;;;;;;4417474;32;20241;-82
2022/11/27 00:42:18;;;;;;;62.30;34.30;;;;;;;;;;4418097;32;20262;-84
2022/11/27 00:44:45;;;;;;;66.17;38.37;;;;;;;;;;4417612;32;20252;-82
2022/11/27 00:47:11;;;;;;;74.03;44.23;;;;;;;;;;4417959;32;20221;-81
2022/11/27 00:49:38;;;;;;;77.73;45.10;;;;;;;;;;4417732;32;20241;-85
2022/11/27 00:52:05;;;;;;;71.60;44.70;;;;;;;;;;4417562;32;20253;-84
2022/11/27 00:54:33;;;;;;;86.33;44.40;;;;;;;;;;4417485;32;20245;-83
2022/11/27 00:57:00;;;;;;;86.97;46.37;;;;;;;;;;4417586;32;20298;-83
2022/11/27 00:59:27;;;;;;;93.70;48.80;;;;;;;;;;4417447;32;20294;-83
2022/11/27 01:01:53;;;;;;;101.33;55.17;;;;;;;;;;4418482;32;20242;-82
2022/11/27 01:04:20;;;;;;;104.63;57.37;;;;;;;;;;4417181;32;20256;-82
2022/11/27 01:06:47;;;;;;;94.20;49.47;;;;;;;;;;4417458;32;20229;-81
2022/11/27 01:09:15;;;;;;;81.93;44.07;;;;;;;;;;4402216;32;20291;-82
2022/11/27 01:11:44;;;;;;;71.40;40.07;;;;;;;;;;4416677;32;20290;-86
2022/11/27 01:14:13;;;;;;;71.77;38.50;;;;;;;;;;4417197;32;20252;-82
2022/11/27 01:16:40;;;;;;;64.63;34.20;;;;;;;;;;4417269;32;20288;-81
2022/11/27 01:19:06;;;;;;;68.47;34.50;;;;;;;;;;4417136;32;20681;-82
2022/11/27 01:21:34;;;;;;;73.13;36.33;;;;;;;;;;4417336;32;20270;-82
2022/11/27 01:24:01;;;;;;;61.77;35.40;;;;;;;;;;4417227;32;20313;-82
2022/11/27 01:26:28;;;;;;;59.33;36.03;;;;;;;;;;4417084;32;20221;-81
2022/11/27 01:28:57;;;;;;;72.57;36.73;;;;;;;;;;4417278;32;20278;-81
2022/11/27 01:31:26;;;;;;;63.13;36.10;;;;;;;;;;4417506;32;20274;-81
2022/11/27 01:33:54;;;;;;;73.33;37.40;;;;;;;;;;4418072;32;20297;-81
2022/11/27 01:36:22;;;;;;;78.43;41.17;;;;;;;;;;4405298;32;20253;-81
2022/11/27 01:38:49;;;;;;;85.43;45.23;;;;;;;;;;4404864;32;20237;-82
2022/11/27 01:41:19;;;;;;;86.30;43.53;;;;;;;;;;4405230;32;20319;-82
2022/11/27 01:43:48;;;;;;;96.30;47.83;;;;;;;;;;4405236;32;20804;-82
2022/11/27 01:46:39;;;;;;;98.00;48.07;;;;;;;;;;4405252;32;20885;-81
2022/11/27 01:49:30;;;;;;;83.00;44.80;;;;;;;;;;4404798;32;20294;-81
2022/11/27 01:52:00;;;;;;;75.37;41.17;;;;;;;;;;4413148;32;20732;-82
2022/11/27 01:54:29;;;;;;;76.33;38.83;;;;;;;;;;4419845;32;20323;-84
2022/11/27 01:57:02;;;;;;;66.80;36.33;;;;;;;;;;4419850;32;20228;-81
2022/11/27 01:59:29;;;;;;;81.03;39.47;;;;;;;;;;4419815;32;20290;-84
2022/11/27 02:01:57;;;;;;;69.37;38.07;;;;;;;;;;4420000;32;20282;-81
2022/11/27 02:04:24;;;;;;;69.67;38.13;;;;;;;;;;4419643;32;20237;-84
2022/11/27 02:06:53;;;;;;;66.27;36.63;;;;;;;;;;4419193;32;20286;-82
2022/11/27 02:09:20;;;;;;;71.30;39.47;;;;;;;;;;4419634;32;20607;-83
2022/11/27 02:11:58;;;;;;;65.73;36.87;;;;;;;;;;4419887;32;20319;-82
2022/11/27 02:14:35;;;;;;;80.87;42.50;;;;;;;;;;4411195;32;20237;-81
2022/11/27 02:17:13;;;;;;;76.87;41.23;;;;;;;;;;4404704;32;20257;-81
2022/11/27 02:19:58;;;;;;;84.70;44.03;;;;;;;;;;4404602;32;20279;-85
2022/11/27 02:22:39;;;;;;;89.60;46.30;;;;;;;;;;4404869;32;20228;-81
2022/11/27 02:25:17;;;;;;;85.90;44.83;;;;;;;;;;4404254;32;20301;-82
2022/11/27 02:28:01;;;;;;;78.13;44.47;;;;;;;;;;4404442;32;20217;-83
2022/11/27 02:30:32;;;;;;;82.43;46.00;;;;;;;;;;4404572;32;20803;-82
2022/11/27 02:33:00;;;;;;;74.57;41.63;;;;;;;;;;4404535;32;20237;-81
2022/11/27 02:35:31;;;;;;;78.60;43.00;;;;;;;;;;4415257;32;20315;-82
2022/11/27 02:38:02;;;;;;;81.93;45.27;;;;;;;;;;4419541;32;20265;-81
2022/11/27 02:40:33;;;;;;;101.87;45.70;;;;;;;;;;4419435;32;20232;-82
2022/11/27 02:43:04;;;;;;;105.57;47.50;;;;;;;;;;4419797;32;20235;-82
2022/11/27 02:45:37;;;;;;;104.00;51.13;;;;;;;;;;4418833;32;20269;-81
2022/11/27 02:48:05;;;;;;;90.07;48.13;;;;;;;;;;4419437;32;20217;-81
2022/11/27 02:50:35;;;;;;;99.90;46.53;;;;;;;;;;4419179;32;20283;-83
2022/11/27 02:53:06;;;;;;;87.23;46.67;;;;;;;;;;4404319;32;20221;-82
2022/11/27 02:55:36;;;;;;;86.70;43.33;;;;;;;;;;4404200;32;20353;-81
2022/11/27 02:58:08;;;;;;;87.43;44.00;;;;;;;;;;4404239;32;20634;-81
2022/11/27 03:00:38;;;;;;;66.73;36.87;;;;;;;;;;4404231;32;20259;-82
2022/11/27 03:03:08;;;;;;;78.27;38.57;;;;;;;;;;4411047;32;20680;-81
2022/11/27 03:05:41;;;;;;;65.50;36.77;;;;;;;;;;4419138;32;20278;-81
2022/11/27 03:08:14;;;;;;;67.07;35.20;;;;;;;;;;4418961;32;20278;-81
2022/11/27 03:10:45;;;;;;;60.77;35.10;;;;;;;;;;4419156;32;20286;-81
2022/11/27 03:13:13;;;;;;;68.03;35.77;;;;;;;;;;4417753;32;20293;-81
2022/11/27 03:15:49;;;;;;;76.70;36.97;;;;;;;;;;4403662;32;20632;-83
2022/11/27 03:18:23;;;;;;;64.70;37.20;;;;;;;;;;4403490;32;20229;-81
2022/11/27 03:20:59;;;;;;;69.17;38.43;;;;;;;;;;4403827;32;20253;-83
2022/11/27 03:23:28;;;;;;;78.00;39.53;;;;;;;;;;4403749;32;20306;-82
2022/11/27 03:25:54;;;;;;;70.70;37.87;;;;;;;;;;4403677;32;20318;-80
2022/11/27 03:28:24;;;;;;;69.23;39.23;;;;;;;;;;4403215;32;20241;-80
2022/11/27 03:30:53;;;;;;;92.13;42.70;;;;;;;;;;4403739;32;20264;-80
2022/11/27 03:33:21;;;;;;;77.37;41.60;;;;;;;;;;4403282;32;21273;-80
2022/11/27 03:35:49;;;;;;;76.77;40.83;;;;;;;;;;4416309;32;20369;-83
2022/11/27 03:38:20;;;;;;;63.87;38.53;;;;;;;;;;4418333;32;20253;-81
2022/11/27 03:41:00;;;;;;;73.97;39.93;;;;;;;;;;4419044;32;20232;-81
2022/11/27 03:43:33;;;;;;;72.63;38.50;;;;;;;;;;4421589;32;20213;-80
2022/11/27 03:46:09;;;;;;;72.43;39.27;;;;;;;;;;4435790;32;20273;-81
2022/11/27 03:48:41;;;;;;;65.33;36.20;;;;;;;;;;4436899;32;20209;-80
2022/11/27 03:51:14;;;;;;;66.20;38.53;;;;;;;;;;4432345;32;20321;-86
2022/11/27 03:53:52;;;;;;;68.27;36.20;;;;;;;;;;4430563;32;20240;-80
2022/11/27 03:56:29;;;;;;;81.47;40.13;;;;;;;;;;4418989;32;20712;-81
2022/11/27 03:59:02;;;;;;;82.80;40.57;;;;;;;;;;4418172;32;20631;-82
2022/11/27 04:01:32;;;;;;;76.37;39.20;;;;;;;;;;4418298;32;20233;-81
2022/11/27 04:03:59;;;;;;;68.83;39.10;;;;;;;;;;4418438;32;20271;-84
2022/11/27 04:06:26;;;;;;;69.93;37.17;;;;;;;;;;4418385;32;20652;-80
2022/11/27 04:08:53;;;;;;;66.07;37.73;;;;;;;;;;4418988;32;20217;-80
2022/11/27 04:11:19;;;;;;;64.13;37.07;;;;;;;;;;4418954;32;20621;-81
2022/11/27 04:13:46;;;;;;;57.00;34.03;;;;;;;;;;4414018;32;20243;-80
2022/11/27 04:16:13;;;;;;;63.33;34.70;;;;;;;;;;4406504;32;20260;-80
2022/11/27 04:18:41;;;;;;;55.67;32.30;;;;;;;;;;4410512;32;20213;-81
2022/11/27 04:21:08;;;;;;;53.27;32.53;;;;;;;;;;4409391;32;20234;-80
2022/11/27 04:23:36;;;;;;;57.60;32.87;;;;;;;;;;4409224;32;20222;-80
2022/11/27 04:26:03;;;;;;;59.77;31.40;;;;;;;;;;4408617;32;20241;-80
2022/11/27 04:28:29;;;;;;;73.40;38.83;;;;;;;;;;4405610;32;20295;-84
2022/11/27 04:30:57;;;;;;;103.67;53.50;;;;;;;;;;4407362;32;20330;-81
2022/11/27 04:33:24;;;;;;;154.67;70.60;;;;;;;;;;4408503;32;20279;-80
2022/11/27 04:35:52;;;;;;;136.80;71.67;;;;;;;;;;4407497;32;20282;-81
2022/11/27 04:38:19;;;;;;;140.33;70.47;;;;;;;;;;4407311;32;20221;-82
2022/11/27 04:40:46;;;;;;;161.30;73.87;;;;;;;;;;4406773;32;20314;-80
2022/11/27 04:43:13;;;;;;;152.73;76.23;;;;;;;;;;4404626;32;20235;-81
2022/11/27 04:45:40;;;;;;;151.70;74.00;;;;;;;;;;4402688;32;20294;-83
2022/11/27 04:48:07;;;;;;;128.30;67.13;;;;;;;;;;4402651;32;20272;-84
2022/11/27 04:50:34;;;;;;;107.50;62.60;;;;;;;;;;4402612;32;20302;-84
2022/11/27 04:53:02;;;;;;;111.23;61.30;;;;;;;;;;4402398;32;20282;-82
2022/11/27 04:55:28;;;;;;;100.20;54.37;;;;;;;;;;4409305;32;20245;-82
2022/11/27 04:57:55;;;;;;;81.93;41.27;;;;;;;;;;4417766;32;20302;-81
2022/11/27 05:00:22;;;;;;;80.07;42.37;;;;;;;;;;4417301;32;20265;-84
2022/11/27 05:02:49;;;;;;;85.60;44.40;;;;;;;;;;4417406;32;20233;-83
2022/11/27 05:05:16;;;;;;;102.07;49.30;;;;;;;;;;4417577;32;20286;-81
2022/11/27 05:07:43;;;;;;;85.20;46.40;;;;;;;;;;4418315;32;20325;-83
2022/11/27 05:10:12;;;;;;;85.70;47.23;;;;;;;;;;4420441;32;20240;-82
2022/11/27 05:12:39;;;;;;;72.07;35.50;;;;;;;;;;4420410;32;20245;-85
2022/11/27 05:15:09;;;;;;;59.67;34.10;;;;;;;;;;4407542;32;20233;-82
2022/11/27 05:17:37;;;;;;;66.97;35.27;;;;;;;;;;4405231;32;20256;-82
2022/11/27 05:20:04;;;;;;;67.13;37.70;;;;;;;;;;4405248;32;20230;-81
2022/11/27 05:22:31;;;;;;;79.37;43.93;;;;;;;;;;4405280;32;20239;-81
2022/11/27 05:24:58;;;;;;;80.23;41.43;;;;;;;;;;4405187;32;20319;-81
2022/11/27 05:27:26;;;;;;;101.37;53.83;;;;;;;;;;4404955;32;20253;-82
2022/11/27 05:29:52;;;;;;;119.43;69.23;;;;;;;;;;4404935;32;20234;-81
2022/11/27 05:32:19;;;;;;;186.87;124.23;;;;;;;;;;4404745;32;20624;-81
2022/11/27 05:34:48;;;;;;;164.23;117.07;;;;;;;;;;4411677;32;20841;-81
2022/11/27 05:37:15;;;;;;;76.43;50.30;;;;;;;;;;4420039;32;20305;-81
2022/11/27 05:39:42;;;;;;;84.53;46.97;;;;;;;;;;4420108;32;20225;-81
2022/11/27 05:42:09;;;;;;;74.13;39.80;;;;;;;;;;4419884;32;20647;-85
2022/11/27 05:44:37;;;;;;;87.60;40.57;;;;;;;;;;4420088;32;20220;-82
2022/11/27 05:47:04;;;;;;;75.10;40.03;;;;;;;;;;4420103;32;20762;-81
2022/11/27 05:49:31;;;;;;;65.93;37.90;;;;;;;;;;4420390;32;20217;-81
2022/11/27 05:51:58;;;;;;;52.67;31.43;;;;;;;;;;4419296;32;20323;-82
2022/11/27 05:54:26;;;;;;;63.77;35.70;;;;;;;;;;4419813;32;20559;-84
2022/11/27 05:56:52;;;;;;;66.37;37.63;;;;;;;;;;4419821;32;20292;-85
2022/11/27 05:59:19;;;;;;;72.00;41.80;;;;;;;;;;4419917;32;20670;-80
2022/11/27 06:01:49;;;;;;;75.57;45.37;;;;;;;;;;4419803;32;20240;-80
2022/11/27 06:04:15;;;;;;;89.97;53.53;;;;;;;;;;4419898;32;20221;-81
2022/11/27 06:06:42;;;;;;;71.07;43.20;;;;;;;;;;4419591;32;20290;-81
2022/11/27 06:09:09;;;;;;;65.00;41.67;;;;;;;;;;4419587;32;20253;-81
2022/11/27 06:11:36;;;;;;;108.43;58.77;;;;;;;;;;4419885;32;20237;-82
2022/11/27 06:14:02;;;;;;;90.00;53.33;;;;;;;;;;4413382;32;20282;-82
2022/11/27 06:16:29;;;;;;;82.47;54.73;;;;;;;;;;4404157;32;20261;-83
2022/11/27 06:18:57;;;;;;;93.73;55.37;;;;;;;;;;4404574;32;20217;-83
2022/11/27 06:21:24;;;;;;;90.37;53.53;;;;;;;;;;4405202;32;20335;-81
2022/11/27 06:23:54;;;;;;;75.93;46.73;;;;;;;;;;4419597;32;20221;-81
2022/11/27 06:26:24;;;;;;;97.80;58.83;;;;;;;;;;4419455;32;20255;-81
2022/11/27 06:28:51;;;;;;;88.47;54.30;;;;;;;;;;4419378;32;20237;-81
2022/11/27 06:31:20;;;;;;;65.70;42.17;;;;;;;;;;4419251;32;20404;-82
2022/11/27 06:33:50;;;;;;;78.10;43.63;;;;;;;;;;4419836;32;20736;-83
2022/11/27 06:36:20;;;;;;;64.03;40.80;;;;;;;;;;4419516;32;20233;-84
2022/11/27 06:38:48;;;;;;;73.00;41.27;;;;;;;;;;4419226;32;20241;-82
2022/11/27 06:41:17;;;;;;;69.53;45.00;;;;;;;;;;4419237;32;20269;-82
2022/11/27 06:43:45;;;;;;;69.83;45.50;;;;;;;;;;4419688;32;20702;-82
2022/11/27 06:46:15;;;;;;;79.23;46.97;;;;;;;;;;4419099;32;20253;-82
2022/11/27 06:48:41;;;;;;;79.77;44.40;;;;;;;;;;4407367;32;20305;-81
2022/11/27 06:51:11;;;;;;;69.90;40.67;;;;;;;;;;4407067;32;20319;-83
2022/11/27 06:53:39;;;;;;;75.43;41.27;;;;;;;;;;4419025;32;20229;-83
2022/11/27 06:56:08;;;;;;;78.43;48.47;;;;;;;;;;4418808;32;20695;-82
2022/11/27 06:58:35;;;;;;;78.87;50.67;;;;;;;;;;4419084;32;20245;-82
2022/11/27 07:01:04;;;;;;;79.33;45.40;;;;;;;;;;4419019;32;20284;-81
2022/11/27 07:03:31;;;;;;;59.37;39.90;;;;;;;;;;4419467;32;20260;-84
2022/11/27 07:06:00;;;;;;;58.70;34.77;;;;;;;;;;4419161;32;20224;-84
2022/11/27 07:08:27;;;;;;;58.40;35.53;;;;;;;;;;4418623;32;20241;-84
2022/11/27 07:11:00;;;;;;;88.23;43.87;;;;;;;;;;4418888;32;20224;-83
2022/11/27 07:13:29;;;;;;;63.33;35.47;;;;;;;;;;4416167;32;20228;-85
2022/11/27 07:15:59;;;;;;;46.07;24.80;;;;;;;;;;4403481;32;20613;-85
2022/11/27 07:18:26;;;;;;;47.33;29.77;;;;;;;;;;4402645;32;20393;-84
2022/11/27 07:20:53;;;;;;;75.23;41.50;;;;;;;;;;4403718;32;20244;-83
2022/11/27 07:23:20;;;;;;;74.43;40.43;;;;;;;;;;4403321;32;20244;-83
2022/11/27 07:25:47;;;;;;;73.10;37.20;;;;;;;;;;4403690;32;20233;-82
2022/11/27 07:28:18;;;;;;;63.33;36.17;;;;;;;;;;4408415;32;20285;-83
2022/11/27 07:30:44;;;;;;;68.30;39.47;;;;;;;;;;4420845;32;20227;-82
2022/11/27 07:33:11;;;;;;;67.53;39.90;;;;;;;;;;4436564;32;20230;-82
2022/11/27 07:35:38;;;;;;;71.20;40.13;;;;;;;;;;4437708;32;20257;-82
2022/11/27 07:38:04;;;;;;;86.70;47.83;;;;;;;;;;4430476;32;20237;-86
2022/11/27 07:40:31;;;;;;;78.43;46.80;;;;;;;;;;4415760;32;20221;-86
2022/11/27 07:42:58;;;;;;;80.77;49.30;;;;;;;;;;4419706;32;20294;-84
2022/11/27 07:45:26;;;;;;;74.10;47.13;;;;;;;;;;4417648;32;20237;-85
2022/11/27 07:47:53;;;;;;;72.67;45.83;;;;;;;;;;4418149;32;20251;-82
2022/11/27 07:50:20;;;;;;;69.30;44.00;;;;;;;;;;4418065;32;20217;-82
2022/11/27 07:52:47;;;;;;;72.47;46.73;;;;;;;;;;4417504;32;20264;-82
2022/11/27 07:55:14;;;;;;;69.83;43.50;;;;;;;;;;4417881;32;20256;-83
2022/11/27 07:57:42;;;;;;;78.00;47.73;;;;;;;;;;4418400;32;20236;-81
2022/11/27 08:00:10;;;;;;;100.13;63.10;;;;;;;;;;4417918;32;20229;-82
2022/11/27 08:02:39;;;;;;;83.47;53.80;;;;;;;;;;4416288;32;20268;-84
2022/11/27 08:05:06;;;;;;;82.33;49.83;;;;;;;;;;4416106;32;20314;-78
2022/11/27 08:07:33;;;;;;;76.80;50.33;;;;;;;;;;4416639;32;20245;-80
2022/11/27 08:10:02;;;;;;;65.07;43.57;;;;;;;;;;4417898;32;20342;-81
2022/11/27 08:12:29;;;;;;;67.63;41.07;;;;;;;;;;4417781;32;20236;-86
2022/11/27 08:14:56;;;;;;;65.93;41.17;;;;;;;;;;4417136;32;20257;-80
2022/11/27 08:17:23;;;;;;;59.20;37.00;;;;;;;;;;4417777;32;20314;-81
2022/11/27 08:19:51;;;;;;;51.53;33.83;;;;;;;;;;4417543;32;20685;-82
2022/11/27 08:22:19;;;;;;;52.50;33.13;;;;;;;;;;4417562;32;20232;-83
2022/11/27 08:24:46;;;;;;;58.93;30.63;;;;;;;;;;4417526;32;20583;-81
2022/11/27 08:27:15;;;;;;;46.20;31.70;;;;;;;;;;4417351;32;20251;-82
2022/11/27 08:29:42;;;;;;;48.33;31.77;;;;;;;;;;4409632;32;20580;-81
2022/11/27 08:32:09;;;;;;;59.87;39.00;;;;;;;;;;4404348;32;20741;-81
2022/11/27 08:34:37;;;;;;;57.30;36.33;;;;;;;;;;4416397;32;20266;-81
2022/11/27 08:37:07;;;;;;;61.30;38.53;;;;;;;;;;4417156;32;20249;-83
2022/11/27 08:39:34;;;;;;;68.60;39.27;;;;;;;;;;4417323;32;20289;-81
2022/11/27 08:42:01;;;;;;;66.37;38.17;;;;;;;;;;4416154;32;20244;-83
2022/11/27 08:44:28;;;;;;;60.97;36.47;;;;;;;;;;4416755;32;20310;-81
2022/11/27 08:46:55;;;;;;;42.90;28.33;;;;;;;;;;4417134;32;20241;-82
2022/11/27 08:49:22;;;;;;;44.80;25.93;;;;;;;;;;4417824;32;20249;-80
2022/11/27 08:51:49;;;;;;;44.40;26.83;;;;;;;;;;4416968;32;20268;-82
2022/11/27 08:54:17;;;;;;;42.23;29.73;;;;;;;;;;4417512;32;20251;-81
2022/11/27 08:56:44;;;;;;;52.27;30.30;;;;;;;;;;4416975;32;20288;-83
2022/11/27 08:59:11;;;;;;;39.80;28.10;;;;;;;;;;4416946;32;20777;-82
2022/11/27 09:01:37;;;;;;;47.87;29.00;;;;;;;;;;4416523;32;20801;-81
2022/11/27 09:04:04;;;;;;;48.43;31.47;;;;;;;;;;4417042;32;20251;-80
2022/11/27 09:06:33;;;;;;;57.67;37.43;;;;;;;;;;4417039;32;20226;-81
2022/11/27 09:09:04;;;;;;;74.93;44.63;;;;;;;;;;4416899;32;20616;-81
2022/11/27 09:11:35;;;;;;;75.10;47.97;;;;;;;;;;4416951;32;20372;-80
2022/11/27 09:14:03;;;;;;;73.00;46.73;;;;;;;;;;4416893;32;20225;-81
2022/11/27 09:16:31;;;;;;;74.77;44.20;;;;;;;;;;4416680;32;20240;-81
2022/11/27 09:18:58;;;;;;;78.23;48.33;;;;;;;;;;4417775;32;20225;-81
2022/11/27 09:21:27;;;;;;;74.50;49.03;;;;;;;;;;4417853;32;20770;-81
2022/11/27 09:23:56;;;;;;;90.83;50.47;;;;;;;;;;4417606;32;20233;-83
2022/11/27 09:26:24;;;;;;;81.97;52.60;;;;;;;;;;4417303;32;20294;-82
2022/11/27 09:28:53;;;;;;;73.53;45.33;;;;;;;;;;4407683;32;20696;-82
2022/11/27 09:31:22;;;;;;;81.83;49.73;;;;;;;;;;4401594;32;20343;-83
2022/11/27 09:33:49;;;;;;;81.77;45.37;;;;;;;;;;4413654;32;20267;-81
2022/11/27 09:36:17;;;;;;;70.87;44.33;;;;;;;;;;4417077;32;20237;-79
2022/11/27 09:38:45;;;;;;;83.03;46.03;;;;;;;;;;4417484;32;20786;-81
2022/11/27 09:41:37;;;;;;;75.87;45.00;;;;;;;;;;4417335;32;20638;-82
2022/11/27 09:44:16;;;;;;;74.93;46.30;;;;;;;;;;4417259;32;20217;-82
2022/11/27 09:46:44;;;;;;;80.47;51.47;;;;;;;;;;4417729;32;20697;-81
2022/11/27 09:49:15;;;;;;;85.93;49.27;;;;;;;;;;4417510;32;20322;-82
2022/11/27 09:51:45;;;;;;;81.23;48.53;;;;;;;;;;4417279;32;20373;-82
2022/11/27 09:54:18;;;;;;;85.27;53.90;;;;;;;;;;4418644;32;20233;-82
2022/11/27 09:56:49;;;;;;;73.83;48.03;;;;;;;;;;4419953;32;20322;-82
2022/11/27 09:59:19;;;;;;;76.00;49.37;;;;;;;;;;4420142;32;20306;-81
2022/11/27 10:01:47;;;;;;;73.47;45.03;;;;;;;;;;4419840;32;20237;-82
2022/11/27 10:04:15;;;;;;;75.60;45.13;;;;;;;;;;4419856;32;20221;-81
2022/11/27 10:06:59;;;;;;;73.63;44.40;;;;;;;;;;4420353;32;20237;-82
2022/11/27 10:09:39;;;;;;;69.77;44.37;;;;;;;;;;4421407;32;20234;-81
2022/11/27 10:12:16;;;;;;;67.90;44.27;;;;;;;;;;4420798;32;20256;-81
2022/11/27 10:14:58;;;;;;;68.10;39.90;;;;;;;;;;4419441;32;20616;-81
2022/11/27 10:17:32;;;;;;;58.60;38.33;;;;;;;;;;4419509;32;20245;-81
2022/11/27 10:20:09;;;;;;;62.77;39.23;;;;;;;;;;4420638;32;20285;-81
2022/11/27 10:22:46;;;;;;;64.63;40.23;;;;;;;;;;4420814;32;20268;-82
2022/11/27 10:25:18;;;;;;;71.40;43.00;;;;;;;;;;4421707;32;20217;-80
2022/11/27 10:27:51;;;;;;;67.33;42.07;;;;;;;;;;4422460;32;20237;-83
2022/11/27 10:30:21;;;;;;;73.03;45.03;;;;;;;;;;4410405;32;20239;-83
2022/11/27 10:32:52;;;;;;;74.17;47.13;;;;;;;;;;4410071;32;20229;-81
2022/11/27 10:35:22;;;;;;;75.53;45.57;;;;;;;;;;4419546;32;20697;-81
2022/11/27 10:37:53;;;;;;;59.00;37.90;;;;;;;;;;4419339;32;20690;-82
2022/11/27 10:40:25;;;;;;;52.57;33.53;;;;;;;;;;4419808;32;20289;-80
2022/11/27 10:42:58;;;;;;;41.20;26.60;;;;;;;;;;4419559;32;20399;-80
2022/11/27 10:45:33;;;;;;;33.53;21.20;;;;;;;;;;4419237;32;20217;-81
2022/11/27 10:47:59;;;;;;;32.17;21.30;;;;;;;;;;4419717;32;20314;-78
2022/11/27 10:50:26;;;;;;;39.17;22.83;;;;;;;;;;4418958;32;20321;-84
2022/11/27 10:52:57;;;;;;;35.50;23.30;;;;;;;;;;4404622;32;20255;-77
2022/11/27 10:55:34;;;;;;;35.90;23.77;;;;;;;;;;4419305;32;20282;-77
2022/11/27 10:58:08;;;;;;;43.00;26.37;;;;;;;;;;4419145;32;20257;-77
2022/11/27 11:00:36;;;;;;;33.63;23.47;;;;;;;;;;4418986;32;20234;-78
2022/11/27 11:03:05;;;;;;;32.80;23.07;;;;;;;;;;4418871;32;20244;-79
2022/11/27 11:05:33;;;;;;;53.37;32.23;;;;;;;;;;4418220;32;20314;-77
2022/11/27 11:08:03;;;;;;;43.27;26.70;;;;;;;;;;4418820;32;20697;-78
2022/11/27 11:10:33;;;;;;;50.57;32.20;;;;;;;;;;4419063;32;20220;-77
2022/11/27 11:13:22;;;;;;;81.47;50.77;;;;;;;;;;4419273;32;20671;-78
2022/11/27 11:15:58;;;;;;;79.67;50.57;;;;;;;;;;4418731;32;20262;-78
2022/11/27 11:18:27;;;;;;;75.67;50.17;;;;;;;;;;4425098;32;20255;-79
2022/11/27 11:20:58;;;;;;;82.00;54.80;;;;;;;;;;4436438;32;20260;-78
2022/11/27 11:23:31;;;;;;;59.53;41.33;;;;;;;;;;4434503;32;20301;-83
2022/11/27 11:26:05;;;;;;;63.03;36.50;;;;;;;;;;4435979;32;20237;-83
2022/11/27 11:28:35;;;;;;;64.70;38.10;;;;;;;;;;4423649;32;20249;-79
2022/11/27 11:31:07;;;;;;;57.57;37.37;;;;;;;;;;4418255;32;20221;-82
2022/11/27 11:33:40;;;;;;;45.80;31.27;;;;;;;;;;4418796;32;20280;-81
2022/11/27 11:36:10;;;;;;;52.43;35.37;;;;;;;;;;4419013;32;20221;-87
2022/11/27 11:38:41;;;;;;;54.50;34.17;;;;;;;;;;4418755;32;20229;-83
2022/11/27 11:41:08;;;;;;;49.83;33.77;;;;;;;;;;4418646;32;20255;-82
2022/11/27 11:43:37;;;;;;;43.37;30.40;;;;;;;;;;4418138;32;20240;-82
2022/11/27 11:46:22;;;;;;;50.83;31.37;;;;;;;;;;4418502;32;20299;-79
2022/11/27 11:48:57;;;;;;;38.87;25.00;;;;;;;;;;4416153;32;20248;-82
2022/11/27 11:51:36;;;;;;;29.30;20.57;;;;;;;;;;4418592;32;20277;-81
2022/11/27 11:54:15;;;;;;;27.83;18.27;;;;;;;;;;4418441;32;20703;-86
2022/11/27 11:56:51;;;;;;;29.97;16.57;;;;;;;;;;4417261;32;20736;-82
2022/11/27 11:59:24;;;;;;;26.10;18.70;;;;;;;;;;4416272;32;20782;-83
2022/11/27 12:02:12;;;;;;;29.50;21.67;;;;;;;;;;4417383;32;20318;-80
2022/11/27 12:04:56;;;;;;;25.57;17.00;;;;;;;;;;4418290;32;20260;-78
2022/11/27 12:07:35;;;;;;;17.63;14.30;;;;;;;;;;4418379;32;20321;-78
2022/11/27 12:10:12;;;;;;;32.67;16.63;;;;;;;;;;4418159;32;20244;-78
2022/11/27 12:12:51;;;;;;;22.37;14.37;;;;;;;;;;4418297;32;20297;-82
2022/11/27 12:15:25;;;;;;;26.13;15.20;;;;;;;;;;4418142;32;20289;-84
2022/11/27 12:18:00;;;;;;;19.20;14.23;;;;;;;;;;4417109;32;20396;-83
2022/11/27 12:20:37;;;;;;;22.97;15.30;;;;;;;;;;4416661;32;20221;-80
2022/11/27 12:23:36;;;;;;;27.00;18.13;;;;;;;;;;4416220;32;20285;-81
2022/11/27 12:26:10;;;;;;;26.70;16.03;;;;;;;;;;4415601;32;20252;-83
2022/11/27 12:29:14;;;;;;;20.93;16.00;;;;;;;;;;4416786;32;20244;-79
2022/11/27 12:32:06;;;;;;;27.73;17.50;;;;;;;;;;4401941;32;20677;-78
2022/11/27 12:34:44;;;;;;;28.77;20.90;;;;;;;;;;4402801;32;20229;-80
2022/11/27 12:37:30;;;;;;;27.53;20.10;;;;;;;;;;4411267;32;20237;-81
2022/11/27 12:40:11;;;;;;;30.20;21.37;;;;;;;;;;4418060;32;20263;-82
2022/11/27 12:42:46;;;;;;;62.10;39.77;;;;;;;;;;4418037;32;20225;-83
2022/11/27 12:45:19;;;;;;;69.77;43.13;;;;;;;;;;4417351;32;20668;-81
2022/11/27 12:47:51;;;;;;;39.13;24.73;;;;;;;;;;4417967;32;20233;-80
2022/11/27 12:50:24;;;;;;;33.43;20.40;;;;;;;;;;4418088;32;20221;-84
2022/11/27 12:52:56;;;;;;;35.53;21.10;;;;;;;;;;4417612;32;20240;-81
2022/11/27 12:55:27;;;;;;;29.23;20.57;;;;;;;;;;4417704;32;20293;-78
2022/11/27 12:57:59;;;;;;;29.07;19.80;;;;;;;;;;4418069;32;20553;-79
2022/11/27 13:00:29;;;;;;;23.23;18.20;;;;;;;;;;4417366;32;20649;-78
2022/11/27 13:03:04;;;;;;;26.17;18.23;;;;;;;;;;4417750;32;20231;-80
2022/11/27 13:05:38;;;;;;;28.83;17.80;;;;;;;;;;4418110;32;20628;-80
2022/11/27 13:08:13;;;;;;;29.43;18.30;;;;;;;;;;4417735;32;20239;-80
2022/11/27 13:10:45;;;;;;;26.10;19.27;;;;;;;;;;4417439;32;20347;-81
2022/11/27 13:13:18;;;;;;;32.57;21.00;;;;;;;;;;4417696;32;20642;-80
2022/11/27 13:15:49;;;;;;;29.07;19.17;;;;;;;;;;4417564;32;20255;-78
2022/11/27 13:18:21;;;;;;;29.57;18.30;;;;;;;;;;4417412;32;20260;-82
2022/11/27 13:20:51;;;;;;;29.40;19.10;;;;;;;;;;4417429;32;20306;-79
2022/11/27 13:23:18;;;;;;;26.67;17.63;;;;;;;;;;4417877;32;20705;-79
2022/11/27 13:25:50;;;;;;;25.13;17.63;;;;;;;;;;4417608;32;20287;-80
2022/11/27 13:28:24;;;;;;;23.33;18.10;;;;;;;;;;4417886;32;20709;-79
2022/11/27 13:30:53;;;;;;;28.63;20.23;;;;;;;;;;4407118;32;20802;-79
2022/11/27 13:33:32;;;;;;;31.40;22.80;;;;;;;;;;4405654;32;20248;-78
2022/11/27 13:36:02;;;;;;;39.60;25.23;;;;;;;;;;4406271;32;20334;-78
2022/11/27 13:38:31;;;;;;;39.80;23.43;;;;;;;;;;4420295;32;20243;-80
2022/11/27 13:41:04;;;;;;;31.37;21.93;;;;;;;;;;4420193;32;20256;-79
2022/11/27 13:43:40;;;;;;;38.13;22.80;;;;;;;;;;4420211;32;20453;-79
2022/11/27 13:46:10;;;;;;;31.67;20.43;;;;;;;;;;4420417;32;20305;-83
2022/11/27 13:48:40;;;;;;;25.03;16.73;;;;;;;;;;4420277;32;20251;-85
2022/11/27 13:51:10;;;;;;;23.40;17.17;;;;;;;;;;4416668;32;20625;-84
2022/11/27 13:53:40;;;;;;;31.23;20.80;;;;;;;;;;4405191;32;20279;-87
2022/11/27 13:56:08;;;;;;;35.93;21.67;;;;;;;;;;4404939;32;20282;-84
2022/11/27 13:58:36;;;;;;;31.93;22.57;;;;;;;;;;4404531;32;20213;-83
2022/11/27 14:01:15;;;;;;;29.40;21.07;;;;;;;;;;4404672;32;20803;-86
2022/11/27 14:03:42;;;;;;;30.53;21.13;;;;;;;;;;4405289;32;20312;-83
2022/11/27 14:06:27;;;;;;;33.20;21.57;;;;;;;;;;4404894;32;20637;-82
2022/11/27 14:09:07;;;;;;;28.33;21.53;;;;;;;;;;4410455;32;20252;-82
2022/11/27 14:11:38;;;;;;;31.83;22.80;;;;;;;;;;4420101;32;20233;-79
2022/11/27 14:14:19;;;;;;;37.90;21.10;;;;;;;;;;4419567;32;20232;-85
2022/11/27 14:17:03;;;;;;;50.70;25.63;;;;;;;;;;4419564;32;20260;-85
2022/11/27 14:19:33;;;;;;;42.73;29.93;;;;;;;;;;4404858;32;20221;-83
2022/11/27 14:22:02;;;;;;;31.07;19.93;;;;;;;;;;4404391;32;20265;-81
2022/11/27 14:24:42;;;;;;;41.27;25.23;;;;;;;;;;4404868;32;20233;-81
2022/11/27 14:27:20;;;;;;;32.87;19.83;;;;;;;;;;4404436;32;20305;-80
2022/11/27 14:29:47;;;;;;;42.57;27.77;;;;;;;;;;4403835;32;20822;-80
2022/11/27 14:32:16;;;;;;;59.37;33.10;;;;;;;;;;4404379;32;20294;-79
2022/11/27 14:34:43;;;;;;;86.30;50.40;;;;;;;;;;4404326;32;20316;-80